Hauptseite
METAR-TAF:

METAR-TAF

Flughäfen :

Heeresflugplatz Fritzlar

Fritzlar, Deutschland

Breite: 51-07N, Länge: 009-17E, Höhe: 172 m

Beobachtung

Neuester Wetterbericht von vor 1 Stunde und 5 Minuten, um 05:20 UTC
Wind 2 kt aus West/Nordwest
Temperatur 2°C
Luftfeuchtigkeit 100%
Luftdruck 1027 hPa
Sichtweite: 0200 m
Nebel

METAR: ETHF 070520Z 29002KT 0200 R30/0800D FG 02/02 Q1027 RED RED

Zeit: 08:25 (06:25 UTC)

Prognose

Neuester Wetterbericht von vor 2 Stunden und 5 Minuten, um 04:20 UTC
Gültige Prognose vom 07 um 05 UTC bis 07 um 14 UTC
Wind 2 kt aus unterschiedlichen Richtungen
Sichtweite: 0100 m
in der Höhe von 100 ft
Nebel
Übergehend zu
vom 07 um 09 UTC bis 07 um 11 UTC
Wind 8 kt aus Süd/Südwest
Sichtweite 10 km oder mehr
Leicht bewölkt in der Höhe von 1500 ft
Aufgelockert bewölkt in der Höhe von 34000 ft

TAF: ETHF 070420Z 0705/0714 VRB02KT 0100 FG VV001 BECMG 0709/0711 21008KT 9999 NSW FEW015 SCT340

Wetterbeobachtungen und Prognosen von mehr als 4000 Flughäfen (METAR und TAF Bericht).

Die verfügbaren Stationen werden durch gelbe und rote Markierungen auf der Karte dargestellt.

Führen Sie die Maus auf sie, um den Namen der Station zu sehen.

Darauf klicken, um die Beobachtung von Wetterbeobachtungen und Prognosen zu sehen.

Um die Karte zu ändern : klicken Sie auf den grünen Tasten mit einem schwarzen Kreuz Zum Vergrößern, auf den grünen Button mit einem Gedankenstrich zu verkleinern, oder auf die grünen Pfeile für benachbarte Karten.


METAR-TAF: